Aérodrome :
LOGIN :

S'inscrire | Disclaimer

   EN    FR    IT 

 










Légende :    VFR   VFR Marginal   IFR   IFR Intensif   IFR Très Intensif
Visi : 
Plafond : 
>= 8 km
>= 3000ft
5 à 8 km
1000 à 3000 ft
1500m à 5 km
500 à 1000 ft
800 à 1500m
200 à 500 ft
< 800m
< 200 ft
Symboles :   Orages  Brouillard  Fortes neiges  Fortes précipitations  Vent > 20 kt
SIGMETs :   Divers  Orages  Givrage  Turbulence  Onde Orograph.  Cendres Volcan.






- Altitude de l'aérodrome : 46 ft
- Code IATA : SNN


EINN - Shannon

DERNIER METAR :
  • 241800Z 26011KT 9999 FEW018CB 06/03 Q1008 NOSIG

METARs EXPIRÉS :
  • 241730Z 27012KT 9999 FEW018CB SCT024 06/03 Q1008 NOSIG
  • 241700Z 28024KT 9999 -SHRA FEW018CB SCT024 BKN040 08/04 Q1008 NOSIG
  • 241630Z 27018G28KT 9999 -SHRA FEW018CB SCT046 07/04 Q1007 NOSIG
  • 241600Z 27014KT 9999 FEW022 SCT030 08/06 Q1007 NOSIG
  • 241530Z 29018KT 9999 FEW018CB SCT038 09/04 Q1007 NOSIG

TAF TAF EINN
Valide du 24 à 18h jusqu'au 25 à 18h UTC


241700Z 2418/2518 29018G30KT 9999 FEW018 SCT030
PROB40
TEMPO 2418/2503 -SHRAGS FEW018CB BKN020
BECMG 2418/2420 25012KT
TEMPO 2504/2518 28017G30KT -SHRAGS FEW018CB BKN020
PROB30
TEMPO 2509/2518 3000 SHGS BKN010



MET'MAP, la Météo Aéronautique d'un coup d'oeil ! - Copyright ORBIFLY Décembre 2007 - Disclaimer

ORBIFLY MET'MAP TEAM :

Programmation & Développement : Alexandra Zaïnal
Sur une idée originale de : Baudouin d'Aumeries
Assistance à la programmation : Marc-Olivier Méhu
Soutien technique & logistique : Manuel Goepfert

Contact : metmap@orbifly.com




SOURCES & CREDITS :

   NOAA